sensor_id;sensor_type;location;lat;lon;timestamp;pressure;altitude;pressure_sealevel;temperature;humidity
74544;BME280;63016;55.030;38.710;2023-04-01T00:00:16;98623.50;;;4.07;66.62
74544;BME280;63016;55.030;38.710;2023-04-01T00:02:42;98621.84;;;4.06;66.59
74544;BME280;63016;55.030;38.710;2023-04-01T00:05:08;98627.19;;;4.04;66.71
74544;BME280;63016;55.030;38.710;2023-04-01T00:07:36;98643.47;;;4.05;66.62
74544;BME280;63016;55.030;38.710;2023-04-01T00:10:03;98609.13;;;4.04;66.53
74544;BME280;63016;55.030;38.710;2023-04-01T00:12:28;98625.56;;;4.03;66.26
74544;BME280;63016;55.030;38.710;2023-04-01T00:14:54;98617.53;;;4.06;66.45
74544;BME280;63016;55.030;38.710;2023-04-01T00:17:19;98623.63;;;4.05;66.33
74544;BME280;63016;55.030;38.710;2023-04-01T00:19:45;98627.97;;;4.05;66.59
74544;BME280;63016;55.030;38.710;2023-04-01T00:22:10;98627.84;;;4.06;66.49
74544;BME280;63016;55.030;38.710;2023-04-01T00:24:37;98627.84;;;4.06;66.49
74544;BME280;63016;55.030;38.710;2023-04-01T00:27:03;98626.06;;;4.07;66.43
74544;BME280;63016;55.030;38.710;2023-04-01T00:29:29;98633.81;;;4.07;66.40
74544;BME280;63016;55.030;38.710;2023-04-01T00:31:57;98633.81;;;4.07;66.54
74544;BME280;63016;55.030;38.710;2023-04-01T00:34:23;98629.47;;;4.07;66.57
74544;BME280;63016;55.030;38.710;2023-04-01T00:36:50;98628.97;;;4.04;66.61
74544;BME280;63016;55.030;38.710;2023-04-01T00:39:16;98649.94;;;4.09;66.66
74544;BME280;63016;55.030;38.710;2023-04-01T00:41:42;98637.84;;;4.09;66.61
74544;BME280;63016;55.030;38.710;2023-04-01T00:44:22;98639.47;;;4.10;66.54
74544;BME280;63016;55.030;38.710;2023-04-01T00:46:48;98628.31;;;4.10;66.34
74544;BME280;63016;55.030;38.710;2023-04-01T00:49:15;98628.31;;;4.10;66.64
74544;BME280;63016;55.030;38.710;2023-04-01T00:51:43;98631.25;;;4.07;66.68
74544;BME280;63016;55.030;38.710;2023-04-01T00:54:12;98630.91;;;4.10;66.74
74544;BME280;63016;55.030;38.710;2023-04-01T00:56:45;98638.66;;;4.10;66.70
74544;BME280;63016;55.030;38.710;2023-04-01T00:59:18;98609.78;;;4.06;66.55
74544;BME280;63016;55.030;38.710;2023-04-01T01:01:45;98632.69;;;4.09;66.65
74544;BME280;63016;55.030;38.710;2023-04-01T01:04:30;98633.34;;;4.11;66.46
74544;BME280;63016;55.030;38.710;2023-04-01T01:14:45;98636.88;;;4.10;66.65
74544;BME280;63016;55.030;38.710;2023-04-01T01:17:33;98637.56;;;4.12;66.68
74544;BME280;63016;55.030;38.710;2023-04-01T01:20:13;98635.13;;;4.11;66.29
74544;BME280;63016;55.030;38.710;2023-04-01T01:23:07;98643.50;;;4.13;66.35
74544;BME280;63016;55.030;38.710;2023-04-01T01:36:36;98635.94;;;4.11;66.53
74544;BME280;63016;55.030;38.710;2023-04-01T01:39:05;98648.97;;;4.10;66.39
74544;BME280;63016;55.030;38.710;2023-04-01T01:41:34;98646.56;;;4.08;66.75
74544;BME280;63016;55.030;38.710;2023-04-01T01:44:02;98654.94;;;4.10;66.50
74544;BME280;63016;55.030;38.710;2023-04-01T01:46:30;98648.97;;;4.10;66.88
74544;BME280;63016;55.030;38.710;2023-04-01T01:48:57;98651.72;;;4.08;66.81
74544;BME280;63016;55.030;38.710;2023-04-01T01:51:26;98654.94;;;4.10;66.53
74544;BME280;63016;55.030;38.710;2023-04-01T01:53:52;98652.38;;;4.10;66.57
74544;BME280;63016;55.030;38.710;2023-04-01T01:56:20;98658.38;;;4.11;66.82
74544;BME280;63016;55.030;38.710;2023-04-01T01:58:51;98651.44;;;4.11;66.83
74544;BME280;63016;55.030;38.710;2023-04-01T02:01:22;98649.66;;;4.12;66.92
74544;BME280;63016;55.030;38.710;2023-04-01T02:03:50;98647.06;;;4.12;66.58
74544;BME280;63016;55.030;38.710;2023-04-01T02:06:19;98649.66;;;4.12;66.69
74544;BME280;63016;55.030;38.710;2023-04-01T02:09:05;98656.25;;;4.15;66.26
74544;BME280;63016;55.030;38.710;2023-04-01T02:11:54;98645.94;;;4.15;66.47
74544;BME280;63016;55.030;38.710;2023-04-01T02:14:23;98644.50;;;4.12;66.53
74544;BME280;63016;55.030;38.710;2023-04-01T02:16:58;98646.75;;;4.15;66.63
74544;BME280;63016;55.030;38.710;2023-04-01T02:19:29;98644.50;;;4.12;66.84
74544;BME280;63016;55.030;38.710;2023-04-01T02:22:01;98651.91;;;4.15;66.75
74544;BME280;63016;55.030;38.710;2023-04-01T02:24:30;98649.50;;;4.13;66.29
74544;BME280;63016;55.030;38.710;2023-04-01T02:26:57;98644.31;;;4.13;66.19
74544;BME280;63016;55.030;38.710;2023-04-01T02:29:24;98648.69;;;4.13;66.43
74544;BME280;63016;55.030;38.710;2023-04-01T02:31:53;98651.91;;;4.15;66.62
74544;BME280;63016;55.030;38.710;2023-04-01T02:34:21;98660.63;;;4.14;66.39
74544;BME280;63016;55.030;38.710;2023-04-01T02:36:49;98663.38;;;4.12;66.60
74544;BME280;63016;55.030;38.710;2023-04-01T02:39:15;98667.38;;;4.15;66.96
74544;BME280;63016;55.030;38.710;2023-04-01T02:41:42;98669.03;;;4.16;66.95
74544;BME280;63016;55.030;38.710;2023-04-01T02:44:08;98676.78;;;4.16;66.77
74544;BME280;63016;55.030;38.710;2023-04-01T02:46:34;98679.34;;;4.16;66.61
74544;BME280;63016;55.030;38.710;2023-04-01T02:56:21;98686.13;;;4.17;66.35
74544;BME280;63016;55.030;38.710;2023-04-01T02:58:47;98691.59;;;4.14;66.45
74544;BME280;63016;55.030;38.710;2023-04-01T03:01:13;98696.75;;;4.14;66.77
74544;BME280;63016;55.030;38.710;2023-04-01T03:03:38;98699.34;;;4.14;66.58
74544;BME280;63016;55.030;38.710;2023-04-01T03:06:06;98703.53;;;4.15;66.94
74544;BME280;63016;55.030;38.710;2023-04-01T03:08:31;98703.53;;;4.15;66.62
74544;BME280;63016;55.030;38.710;2023-04-01T03:10:57;98701.63;;;4.17;66.47
74544;BME280;63016;55.030;38.710;2023-04-01T03:13:22;98693.06;;;4.17;66.78
74544;BME280;63016;55.030;38.710;2023-04-01T03:15:48;98687.75;;;4.18;66.74
74544;BME280;63016;55.030;38.710;2023-04-01T03:18:13;98687.91;;;4.17;66.95
74544;BME280;63016;55.030;38.710;2023-04-01T03:20:39;98686.94;;;4.18;66.55
74544;BME280;63016;55.030;38.710;2023-04-01T03:23:05;98684.34;;;4.18;66.74
74544;BME280;63016;55.030;38.710;2023-04-01T03:25:30;98682.41;;;4.20;66.51
74544;BME280;63016;55.030;38.710;2023-04-01T03:27:56;98680.00;;;4.18;66.52
74544;BME280;63016;55.030;38.710;2023-04-01T03:30:21;98688.38;;;4.20;66.51
74544;BME280;63016;55.030;38.710;2023-04-01T03:32:47;98688.38;;;4.20;66.47
74544;BME280;63016;55.030;38.710;2023-04-01T03:35:12;98702.44;;;4.18;66.52
74544;BME280;63016;55.030;38.710;2023-04-01T03:37:38;98704.84;;;4.19;66.78
74544;BME280;63016;55.030;38.710;2023-04-01T03:40:04;98706.63;;;4.19;66.88
74544;BME280;63016;55.030;38.710;2023-04-01T03:42:30;98715.97;;;4.20;66.47
74544;BME280;63016;55.030;38.710;2023-04-01T03:44:56;98715.03;;;4.21;66.78
74544;BME280;63016;55.030;38.710;2023-04-01T03:47:21;98713.63;;;4.26;67.43
74544;BME280;63016;55.030;38.710;2023-04-01T03:49:47;98717.50;;;4.30;67.03
74544;BME280;63016;55.030;38.710;2023-04-01T03:52:12;98711.38;;;4.31;67.15
74544;BME280;63016;55.030;38.710;2023-04-01T03:54:38;98719.59;;;4.35;66.88
74544;BME280;63016;55.030;38.710;2023-04-01T03:57:04;98717.19;;;4.33;66.68
74544;BME280;63016;55.030;38.710;2023-04-01T03:59:29;98722.19;;;4.35;66.61
74544;BME280;63016;55.030;38.710;2023-04-01T04:01:55;98729.94;;;4.35;66.63
74544;BME280;63016;55.030;38.710;2023-04-01T04:04:21;98730.09;;;4.33;66.74
74544;BME280;63016;55.030;38.710;2023-04-01T04:06:46;98732.69;;;4.33;66.72
74544;BME280;63016;55.030;38.710;2023-04-01T04:09:13;98742.19;;;4.33;66.85
74544;BME280;63016;55.030;38.710;2023-04-01T04:11:39;98755.91;;;4.33;66.93
74544;BME280;63016;55.030;38.710;2023-04-01T04:14:04;98748.31;;;4.32;66.65
74544;BME280;63016;55.030;38.710;2023-04-01T04:16:30;98752.53;;;4.33;66.98
74544;BME280;63016;55.030;38.710;2023-04-01T04:18:55;98758.50;;;4.33;66.78
74544;BME280;63016;55.030;38.710;2023-04-01T04:21:21;98754.13;;;4.34;66.74
74544;BME280;63016;55.030;38.710;2023-04-01T04:23:47;98752.34;;;4.34;66.91
74544;BME280;63016;55.030;38.710;2023-04-01T04:26:14;98755.91;;;4.33;66.85
74544;BME280;63016;55.030;38.710;2023-04-01T04:28:40;98749.66;;;4.36;66.89
74544;BME280;63016;55.030;38.710;2023-04-01T04:31:06;98753.03;;;4.36;66.91
74544;BME280;63016;55.030;38.710;2023-04-01T04:33:33;98752.06;;;4.37;66.93
74544;BME280;63016;55.030;38.710;2023-04-01T04:36:00;98755.44;;;4.38;66.97
74544;BME280;63016;55.030;38.710;2023-04-01T04:38:26;98753.69;;;4.38;66.75
74544;BME280;63016;55.030;38.710;2023-04-01T04:40:52;98754.34;;;4.41;67.04
74544;BME280;63016;55.030;38.710;2023-04-01T04:43:18;98753.53;;;4.40;67.04
74544;BME280;63016;55.030;38.710;2023-04-01T04:45:44;98752.56;;;4.41;67.04
74544;BME280;63016;55.030;38.710;2023-04-01T04:48:11;98753.38;;;4.42;66.72
74544;BME280;63016;55.030;38.710;2023-04-01T04:50:47;98748.84;;;4.44;67.10
74544;BME280;63016;55.030;38.710;2023-04-01T04:53:15;98757.28;;;4.46;67.47
74544;BME280;63016;55.030;38.710;2023-04-01T04:55:49;98759.53;;;4.49;66.91
74544;BME280;63016;55.030;38.710;2023-04-01T04:58:16;98761.19;;;4.50;67.19
74544;BME280;63016;55.030;38.710;2023-04-01T05:00:42;98770.53;;;4.51;66.99
74544;BME280;63016;55.030;38.710;2023-04-01T05:03:08;98778.13;;;4.52;66.94
74544;BME280;63016;55.030;38.710;2023-04-01T05:05:33;98769.56;;;4.52;67.55
74544;BME280;63016;55.030;38.710;2023-04-01T05:07:59;98781.22;;;4.56;67.40
74544;BME280;63016;55.030;38.710;2023-04-01T05:10:25;98780.09;;;4.58;67.39
74544;BME280;63016;55.030;38.710;2023-04-01T05:12:51;98766.00;;;4.53;67.34
74544;BME280;63016;55.030;38.710;2023-04-01T05:15:16;98793.34;;;4.63;67.38
74544;BME280;63016;55.030;38.710;2023-04-01T05:17:42;98796.59;;;4.66;67.51
74544;BME280;63016;55.030;38.710;2023-04-01T05:20:07;98786.28;;;4.66;67.59
74544;BME280;63016;55.030;38.710;2023-04-01T05:22:33;98796.28;;;4.69;67.70
74544;BME280;63016;55.030;38.710;2023-04-01T05:24:58;98795.16;;;4.71;67.63
74544;BME280;63016;55.030;38.710;2023-04-01T05:27:24;98800.16;;;4.73;67.60
74544;BME280;63016;55.030;38.710;2023-04-01T05:29:50;98802.28;;;4.77;67.38
74544;BME280;63016;55.030;38.710;2023-04-01T05:32:15;98792.63;;;4.79;67.52
74544;BME280;63016;55.030;38.710;2023-04-01T05:34:41;98797.78;;;4.79;67.58
74544;BME280;63016;55.030;38.710;2023-04-01T05:37:06;98799.09;;;4.83;67.85
74544;BME280;63016;55.030;38.710;2023-04-01T05:39:36;98802.97;;;4.87;67.97
74544;BME280;63016;55.030;38.710;2023-04-01T05:42:03;98801.06;;;4.89;68.00
74544;BME280;63016;55.030;38.710;2023-04-01T05:44:28;98804.00;;;4.95;67.66
74544;BME280;63016;55.030;38.710;2023-04-01T05:46:54;98805.31;;;4.99;67.87
74544;BME280;63016;55.030;38.710;2023-04-01T05:49:19;98806.59;;;5.03;67.63
74544;BME280;63016;55.030;38.710;2023-04-01T05:51:45;98799.34;;;5.06;68.07
74544;BME280;63016;55.030;38.710;2023-04-01T05:54:10;98802.25;;;5.11;67.39
74544;BME280;63016;55.030;38.710;2023-04-01T05:56:36;98805.97;;;5.17;67.89
74544;BME280;63016;55.030;38.710;2023-04-01T05:59:01;98809.06;;;5.21;67.87
74544;BME280;63016;55.030;38.710;2023-04-01T06:01:27;98817.50;;;5.23;67.77
74544;BME280;63016;55.030;38.710;2023-04-01T06:03:52;98829.13;;;5.27;67.87
74544;BME280;63016;55.030;38.710;2023-04-01T06:06:25;98831.22;;;5.31;68.23
74544;BME280;63016;55.030;38.710;2023-04-01T06:08:52;98839.50;;;5.35;67.87
74544;BME280;63016;55.030;38.710;2023-04-01T06:14:20;98843.72;;;5.44;67.66
74544;BME280;63016;55.030;38.710;2023-04-01T06:19:55;98844.72;;;5.51;67.54
74544;BME280;63016;55.030;38.710;2023-04-01T06:31:05;98853.63;;;5.65;67.67
74544;BME280;63016;55.030;38.710;2023-04-01T06:34:01;98851.84;;;5.65;68.06
74544;BME280;63016;55.030;38.710;2023-04-01T06:58:18;98864.88;;;6.14;68.71
74544;BME280;63016;55.030;38.710;2023-04-01T07:00:50;98865.03;;;6.21;68.49
74544;BME280;63016;55.030;38.710;2023-04-01T07:03:36;98869.22;;;6.30;68.02
74544;BME280;63016;55.030;38.710;2023-04-01T07:06:13;98867.94;;;6.34;68.51
74544;BME280;63016;55.030;38.710;2023-04-01T09:00:38;98985.63;;;7.92;67.43
74544;BME280;63016;55.030;38.710;2023-04-01T09:08:52;98991.88;;;8.06;67.50
74544;BME280;63016;55.030;38.710;2023-04-01T09:14:31;98996.06;;;8.15;68.04
74544;BME280;63016;55.030;38.710;2023-04-01T09:20:03;99004.63;;;8.23;67.77
74544;BME280;63016;55.030;38.710;2023-04-01T09:22:50;99011.53;;;8.31;67.59
74544;BME280;63016;55.030;38.710;2023-04-01T09:30:48;99004.47;;;8.48;67.93
74544;BME280;63016;55.030;38.710;2023-04-01T09:33:52;99003.78;;;8.54;68.21
74544;BME280;63016;55.030;38.710;2023-04-01T09:39:12;99013.69;;;8.73;68.13
74544;BME280;63016;55.030;38.710;2023-04-01T09:44:36;99019.59;;;8.90;68.04
74544;BME280;63016;55.030;38.710;2023-04-01T10:15:26;99035.03;;;9.95;68.04
74544;BME280;63016;55.030;38.710;2023-04-01T10:18:18;99052.19;;;10.04;67.80
74544;BME280;63016;55.030;38.710;2023-04-01T10:52:01;99058.13;;;10.92;67.15
74544;BME280;63016;55.030;38.710;2023-04-01T11:09:10;99040.94;;;10.98;66.09
74544;BME280;63016;55.030;38.710;2023-04-01T11:14:25;99059.00;;;10.99;66.15
74544;BME280;63016;55.030;38.710;2023-04-01T11:30:28;99067.28;;;11.03;66.20
74544;BME280;63016;55.030;38.710;2023-04-01T11:35:32;99076.59;;;11.12;66.38
74544;BME280;63016;55.030;38.710;2023-04-01T11:40:51;99071.03;;;11.22;66.90
74544;BME280;63016;55.030;38.710;2023-04-01T11:46:39;99060.16;;;11.46;66.25
74544;BME280;63016;55.030;38.710;2023-04-01T11:58:11;99071.47;;;11.60;65.61
74544;BME280;63016;55.030;38.710;2023-04-01T12:14:30;99072.91;;;11.63;65.48
74544;BME280;63016;55.030;38.710;2023-04-01T12:17:17;99072.31;;;11.61;65.45
74544;BME280;63016;55.030;38.710;2023-04-01T12:22:49;99072.09;;;11.62;65.81
74544;BME280;63016;55.030;38.710;2023-04-01T12:28:49;99066.41;;;11.52;65.67
74544;BME280;63016;55.030;38.710;2023-04-01T12:33:52;99076.56;;;11.40;65.97
74544;BME280;63016;55.030;38.710;2023-04-01T12:44:46;99079.47;;;11.24;64.97
74544;BME280;63016;55.030;38.710;2023-04-01T12:50:23;99088.19;;;11.10;64.51
74544;BME280;63016;55.030;38.710;2023-04-01T12:55:51;99083.75;;;11.03;65.20
74544;BME280;63016;55.030;38.710;2023-04-01T13:15:22;99099.53;;;10.95;65.10
74544;BME280;63016;55.030;38.710;2023-04-01T13:18:22;99101.31;;;10.95;65.29
74544;BME280;63016;55.030;38.710;2023-04-01T13:24:00;99098.53;;;10.96;65.53
74544;BME280;63016;55.030;38.710;2023-04-01T13:29:52;99108.59;;;10.99;65.46
74544;BME280;63016;55.030;38.710;2023-04-01T13:32:15;99106.78;;;11.00;64.99
74544;BME280;63016;55.030;38.710;2023-04-01T13:35:11;99116.88;;;11.03;64.96
74544;BME280;63016;55.030;38.710;2023-04-01T13:43:26;99131.66;;;10.96;64.51
74544;BME280;63016;55.030;38.710;2023-04-01T13:56:57;99138.41;;;10.69;65.13
74544;BME280;63016;55.030;38.710;2023-04-01T14:10:43;99147.25;;;10.53;65.12
74544;BME280;63016;55.030;38.710;2023-04-01T14:16:29;99153.47;;;10.52;65.13
74544;BME280;63016;55.030;38.710;2023-04-01T14:19:12;99150.59;;;10.47;64.57
74544;BME280;63016;55.030;38.710;2023-04-01T14:27:28;99164.44;;;10.47;65.08
74544;BME280;63016;55.030;38.710;2023-04-01T14:48:59;99189.72;;;10.32;64.91
74544;BME280;63016;55.030;38.710;2023-04-01T14:51:38;99195.31;;;10.29;64.74
74544;BME280;63016;55.030;38.710;2023-04-01T14:56:50;99206.44;;;10.23;64.87
74544;BME280;63016;55.030;38.710;2023-04-01T15:13:14;99202.47;;;9.97;64.95
74544;BME280;63016;55.030;38.710;2023-04-01T15:32:47;99236.56;;;9.73;64.69
74544;BME280;63016;55.030;38.710;2023-04-01T15:35:38;99237.72;;;9.70;64.73
74544;BME280;63016;55.030;38.710;2023-04-01T15:49:15;99246.19;;;9.49;65.04
74544;BME280;63016;55.030;38.710;2023-04-01T15:54:32;99253.91;;;9.43;65.50
74544;BME280;63016;55.030;38.710;2023-04-01T15:57:40;99263.47;;;9.42;65.57
74544;BME280;63016;55.030;38.710;2023-04-01T16:00:23;99270.66;;;9.40;65.33
74544;BME280;63016;55.030;38.710;2023-04-01T16:14:44;99269.78;;;9.25;65.36
74544;BME280;63016;55.030;38.710;2023-04-01T16:19:39;99274.19;;;9.24;65.03
74544;BME280;63016;55.030;38.710;2023-04-01T16:22:23;99270.50;;;9.19;65.39
74544;BME280;63016;55.030;38.710;2023-04-01T16:25:17;99275.03;;;9.17;65.38
74544;BME280;63016;55.030;38.710;2023-04-01T16:30:38;99276.19;;;9.14;64.98
74544;BME280;63016;55.030;38.710;2023-04-01T16:36:28;99285.16;;;9.12;65.65
74544;BME280;63016;55.030;38.710;2023-04-01T16:39:25;99289.06;;;9.08;65.01
74544;BME280;63016;55.030;38.710;2023-04-01T16:47:22;99304.09;;;8.97;65.72
74544;BME280;63016;55.030;38.710;2023-04-01T16:55:50;99315.47;;;8.96;65.48
74544;BME280;63016;55.030;38.710;2023-04-01T16:58:55;99319.06;;;8.95;65.75
74544;BME280;63016;55.030;38.710;2023-04-01T17:04:14;99322.81;;;8.85;65.89
74544;BME280;63016;55.030;38.710;2023-04-01T17:06:58;99316.50;;;8.79;65.04
74544;BME280;63016;55.030;38.710;2023-04-01T17:20:31;99340.91;;;8.78;66.13
74544;BME280;63016;55.030;38.710;2023-04-01T17:23:04;99338.63;;;8.75;65.41
74544;BME280;63016;55.030;38.710;2023-04-01T17:28:43;99343.19;;;8.73;65.84
74544;BME280;63016;55.030;38.710;2023-04-01T17:31:36;99348.41;;;8.73;65.40
74544;BME280;63016;55.030;38.710;2023-04-01T17:34:30;99345.97;;;8.71;65.46
74544;BME280;63016;55.030;38.710;2023-04-01T17:40:36;99347.91;;;8.69;65.61
74544;BME280;63016;55.030;38.710;2023-04-01T17:43:29;99356.88;;;8.67;66.01
74544;BME280;63016;55.030;38.710;2023-04-01T17:54:33;99357.69;;;8.59;65.83
74544;BME280;63016;55.030;38.710;2023-04-01T17:57:39;99367.28;;;8.59;65.52
74544;BME280;63016;55.030;38.710;2023-04-01T18:00:18;99362.56;;;8.54;65.57
74544;BME280;63016;55.030;38.710;2023-04-01T18:03:17;99373.28;;;8.59;65.84
74544;BME280;63016;55.030;38.710;2023-04-01T18:06:01;99363.69;;;8.60;65.62
74544;BME280;63016;55.030;38.710;2023-04-01T18:19:32;99380.28;;;8.50;65.51
74544;BME280;63016;55.030;38.710;2023-04-01T18:22:41;99377.69;;;8.50;65.40
74544;BME280;63016;55.030;38.710;2023-04-01T18:25:16;99385.47;;;8.50;65.75
74544;BME280;63016;55.030;38.710;2023-04-01T18:27:48;99383.22;;;8.47;65.48
74544;BME280;63016;55.030;38.710;2023-04-01T18:30:35;99387.44;;;8.48;65.46
74544;BME280;63016;55.030;38.710;2023-04-01T18:33:09;99386.97;;;8.45;65.94
74544;BME280;63016;55.030;38.710;2023-04-01T18:38:31;99398.50;;;8.42;65.90
74544;BME280;63016;55.030;38.710;2023-04-01T18:46:55;99387.13;;;8.43;66.50
74544;BME280;63016;55.030;38.710;2023-04-01T18:52:34;99382.91;;;8.42;65.80
74544;BME280;63016;55.030;38.710;2023-04-01T19:00:34;99377.22;;;8.39;65.98
74544;BME280;63016;55.030;38.710;2023-04-01T19:03:41;99392.16;;;8.45;66.36
74544;BME280;63016;55.030;38.710;2023-04-01T19:06:32;99396.53;;;8.44;65.88
74544;BME280;63016;55.030;38.710;2023-04-01T19:09:22;99398.34;;;8.44;65.71
74544;BME280;63016;55.030;38.710;2023-04-01T19:20:26;99407.44;;;8.40;65.98
74544;BME280;63016;55.030;38.710;2023-04-01T19:25:51;99404.84;;;8.40;66.33
74544;BME280;63016;55.030;38.710;2023-04-01T19:28:26;99410.38;;;8.37;66.25
74544;BME280;63016;55.030;38.710;2023-04-01T19:30:58;99416.66;;;8.34;65.92
74544;BME280;63016;55.030;38.710;2023-04-01T19:36:14;99409.69;;;8.35;65.90
74544;BME280;63016;55.030;38.710;2023-04-01T19:42:37;99407.78;;;8.37;65.77
74544;BME280;63016;55.030;38.710;2023-04-01T19:47:30;99404.19;;;8.38;66.36
74544;BME280;63016;55.030;38.710;2023-04-01T19:50:24;99398.81;;;8.39;66.28
74544;BME280;63016;55.030;38.710;2023-04-01T19:52:56;99397.22;;;8.38;65.83
74544;BME280;63016;55.030;38.710;2023-04-01T19:55:49;99406.81;;;8.38;65.74
74544;BME280;63016;55.030;38.710;2023-04-01T19:58:33;99410.38;;;8.37;66.01
74544;BME280;63016;55.030;38.710;2023-04-01T20:01:00;99410.66;;;8.34;66.23
74544;BME280;63016;55.030;38.710;2023-04-01T20:09:07;99419.59;;;8.31;65.87
74544;BME280;63016;55.030;38.710;2023-04-01T20:11:55;99421.06;;;8.34;65.55
74544;BME280;63016;55.030;38.710;2023-04-01T20:14:40;99419.75;;;8.30;66.10
74544;BME280;63016;55.030;38.710;2023-04-01T20:17:21;99425.13;;;8.28;66.17
74544;BME280;63016;55.030;38.710;2023-04-01T20:19:55;99429.66;;;8.26;66.42
74544;BME280;63016;55.030;38.710;2023-04-01T20:22:26;99423.81;;;8.24;66.48
74544;BME280;63016;55.030;38.710;2023-04-01T20:24:58;99441.19;;;8.23;66.33
74544;BME280;63016;55.030;38.710;2023-04-01T20:27:55;99438.13;;;8.28;66.42
74544;BME280;63016;55.030;38.710;2023-04-01T20:46:56;99456.31;;;8.28;65.90
74544;BME280;63016;55.030;38.710;2023-04-01T21:06:27;99470.59;;;8.24;66.06
74544;BME280;63016;55.030;38.710;2023-04-01T21:09:11;99466.53;;;8.30;66.00
74544;BME280;63016;55.030;38.710;2023-04-01T21:17:27;99472.69;;;8.20;66.33
74544;BME280;63016;55.030;38.710;2023-04-01T21:25:22;99476.09;;;8.21;66.77
74544;BME280;63016;55.030;38.710;2023-04-01T21:36:03;99478.72;;;8.21;66.04
74544;BME280;63016;55.030;38.710;2023-04-01T21:38:39;99480.34;;;8.22;66.78
74544;BME280;63016;55.030;38.710;2023-04-01T21:41:33;99478.41;;;8.24;66.06
74544;BME280;63016;55.030;38.710;2023-04-01T22:00:52;99480.50;;;8.20;66.70
74544;BME280;63016;55.030;38.710;2023-04-01T22:06:00;99485.69;;;8.20;66.36
74544;BME280;63016;55.030;38.710;2023-04-01T22:08:42;99487.97;;;8.23;66.78
74544;BME280;63016;55.030;38.710;2023-04-01T22:16:32;99504.72;;;8.29;67.16
74544;BME280;63016;55.030;38.710;2023-04-01T22:25:14;99505.22;;;8.33;66.74
74544;BME280;63016;55.030;38.710;2023-04-01T22:27:55;99512.22;;;8.32;66.17
74544;BME280;63016;55.030;38.710;2023-04-01T22:30:34;99511.53;;;8.30;66.87
74544;BME280;63016;55.030;38.710;2023-04-01T22:33:19;99520.16;;;8.31;66.56
74544;BME280;63016;55.030;38.710;2023-04-01T22:44:43;99527.13;;;8.30;66.11
74544;BME280;63016;55.030;38.710;2023-04-01T22:50:05;99519.84;;;8.34;66.85
74544;BME280;63016;55.030;38.710;2023-04-01T22:52:46;99518.03;;;8.34;66.81
74544;BME280;63016;55.030;38.710;2023-04-01T22:55:17;99516.44;;;8.33;67.30
74544;BME280;63016;55.030;38.710;2023-04-01T22:57:52;99520.00;;;8.32;66.67
74544;BME280;63016;55.030;38.710;2023-04-01T23:00:26;99518.22;;;8.33;66.75
74544;BME280;63016;55.030;38.710;2023-04-01T23:03:29;99520.47;;;8.36;66.19
74544;BME280;63016;55.030;38.710;2023-04-01T23:05:57;99526.50;;;8.36;67.15
74544;BME280;63016;55.030;38.710;2023-04-01T23:11:00;99516.72;;;8.30;66.31
74544;BME280;63016;55.030;38.710;2023-04-01T23:13:44;99519.50;;;8.29;66.81
74544;BME280;63016;55.030;38.710;2023-04-01T23:16:14;99526.31;;;8.30;66.86
74544;BME280;63016;55.030;38.710;2023-04-01T23:19:01;99524.69;;;8.29;67.07
74544;BME280;63016;55.030;38.710;2023-04-01T23:21:37;99518.53;;;8.30;66.49
74544;BME280;63016;55.030;38.710;2023-04-01T23:26:56;99523.56;;;8.31;66.52
74544;BME280;63016;55.030;38.710;2023-04-01T23:29:24;99526.16;;;8.31;66.81
74544;BME280;63016;55.030;38.710;2023-04-01T23:32:17;99526.16;;;8.31;66.83
74544;BME280;63016;55.030;38.710;2023-04-01T23:34:51;99523.88;;;8.28;66.67
74544;BME280;63016;55.030;38.710;2023-04-01T23:37:18;99520.28;;;8.21;66.71
74544;BME280;63016;55.030;38.710;2023-04-01T23:39:53;99535.56;;;8.24;66.31
74544;BME280;63016;55.030;38.710;2023-04-01T23:42:30;99540.78;;;8.24;66.55
74544;BME280;63016;55.030;38.710;2023-04-01T23:45:03;99549.22;;;8.26;67.37
74544;BME280;63016;55.030;38.710;2023-04-01T23:47:33;99545.81;;;8.25;66.84
74544;BME280;63016;55.030;38.710;2023-04-01T23:50:15;99538.81;;;8.26;67.06
74544;BME280;63016;55.030;38.710;2023-04-01T23:53:33;99538.97;;;8.24;67.15
74544;BME280;63016;55.030;38.710;2023-04-01T23:55:34;99547.44;;;8.27;66.13
